createdAt,value
2023-01-03T00:00:55.007Z,101379.59
2023-01-03T00:03:21.553Z,101382.03
2023-01-03T00:05:48.837Z,101384.94
2023-01-03T00:08:15.605Z,101382.97
2023-01-03T00:10:42.452Z,101385.66
2023-01-03T00:13:10.001Z,101388.84
2023-01-03T00:15:38.799Z,101383.53
2023-01-03T00:18:05.398Z,101387.81
2023-01-03T00:20:34.385Z,101390.69
2023-01-03T00:23:02.132Z,101400.91
2023-01-03T00:25:29.778Z,101397.34
2023-01-03T00:27:56.335Z,101401.44
2023-01-03T00:30:23.918Z,101399.91
2023-01-03T00:32:50.476Z,101405.19
2023-01-03T00:35:17.018Z,101398.94
2023-01-03T00:37:43.558Z,101400.94
2023-01-03T00:40:11.208Z,101400.59
2023-01-03T00:42:58.226Z,101411.00
2023-01-03T00:45:25.873Z,101410.19
2023-01-03T00:47:53.003Z,101415.88
2023-01-03T00:50:19.897Z,101414.75
2023-01-03T00:52:46.420Z,101422.09
2023-01-03T00:55:12.928Z,101410.59
2023-01-03T00:57:39.699Z,101424.97
2023-01-03T01:00:06.931Z,101424.09
2023-01-03T01:02:33.627Z,101415.78
2023-01-03T01:05:00.355Z,101422.09
2023-01-03T01:07:27.823Z,101423.34
2023-01-03T01:09:54.397Z,101422.72
2023-01-03T01:12:20.931Z,101431.59
2023-01-03T01:14:47.476Z,101430.38
2023-01-03T01:17:19.158Z,101433.84
2023-01-03T01:19:48.914Z,101440.16
2023-01-03T01:22:15.597Z,101444.75
2023-01-03T01:24:42.120Z,101441.66
2023-01-03T01:27:09.074Z,101449.47
2023-01-03T01:29:37.340Z,101456.38
2023-01-03T01:32:05.479Z,101460.09
2023-01-03T01:34:32.020Z,101464.91
2023-01-03T01:36:58.691Z,101457.69
2023-01-03T01:39:27.406Z,101462.75
2023-01-03T01:42:23.187Z,101477.81
2023-01-03T01:45:03.763Z,101483.19
2023-01-03T01:47:49.809Z,101479.47
2023-01-03T01:50:38.556Z,101475.53
2023-01-03T01:53:11.078Z,101476.84
2023-01-03T01:55:44.573Z,101479.44
2023-01-03T01:58:12.580Z,101477.69
2023-01-03T02:00:41.560Z,101479.59
2023-01-03T02:03:08.289Z,101477.00
2023-01-03T02:05:37.236Z,101483.03
2023-01-03T02:08:05.300Z,101495.38
2023-01-03T02:10:49.321Z,101495.41
2023-01-03T02:13:29.220Z,101490.84
2023-01-03T02:16:03.994Z,101500.34
2023-01-03T02:18:40.237Z,101492.47
2023-01-03T02:21:30.696Z,101505.81
2023-01-03T02:24:31.971Z,101499.78
2023-01-03T02:27:08.065Z,101497.53
2023-01-03T02:29:54.614Z,101499.22
2023-01-03T02:32:35.022Z,101505.09
2023-01-03T02:35:25.837Z,101501.28
2023-01-03T02:38:10.154Z,101509.25
2023-01-03T02:40:56.054Z,101514.94
2023-01-03T02:43:41.988Z,101510.88
2023-01-03T02:46:16.319Z,101522.47
2023-01-03T02:49:02.099Z,101517.25
2023-01-03T02:51:37.908Z,101518.53
2023-01-03T02:54:08.480Z,101517.72
2023-01-03T02:57:07.008Z,101527.66
2023-01-03T02:59:39.051Z,101524.19
2023-01-03T03:02:08.882Z,101531.53
2023-01-03T03:04:38.456Z,101535.03
2023-01-03T03:07:13.631Z,101538.59
2023-01-03T03:09:58.797Z,101534.31
2023-01-03T03:12:48.367Z,101531.91
2023-01-03T03:15:17.681Z,101539.88
2023-01-03T03:17:46.397Z,101541.66
2023-01-03T03:20:36.145Z,101548.38
2023-01-03T03:23:27.309Z,101552.69
2023-01-03T03:26:02.450Z,101542.81
2023-01-03T03:28:36.122Z,101543.53
2023-01-03T03:31:09.526Z,101536.78
2023-01-03T03:33:43.551Z,101535.69
2023-01-03T03:36:36.575Z,101537.94
2023-01-03T03:39:06.100Z,101549.03
2023-01-03T03:42:07.252Z,101551.06
2023-01-03T03:45:01.056Z,101550.09
2023-01-03T03:47:44.532Z,101551.69
2023-01-03T03:50:25.852Z,101549.88
2023-01-03T03:52:58.459Z,101558.50
2023-01-03T03:55:32.756Z,101570.19
2023-01-03T03:58:03.766Z,101562.44
2023-01-03T04:00:34.707Z,101559.69
2023-01-03T04:03:05.047Z,101559.03
2023-01-03T04:05:34.997Z,101562.53
2023-01-03T04:08:02.450Z,101570.00
2023-01-03T04:10:32.702Z,101576.84
2023-01-03T04:13:04.004Z,101577.69
2023-01-03T04:15:30.526Z,101567.69
2023-01-03T04:17:58.102Z,101571.06
2023-01-03T04:20:24.632Z,101579.84
2023-01-03T04:22:51.149Z,101584.16
2023-01-03T04:25:17.753Z,101577.91
2023-01-03T04:27:44.375Z,101580.09
2023-01-03T04:30:11.775Z,101583.41
2023-01-03T04:32:39.009Z,101578.84
2023-01-03T04:35:06.007Z,101579.19
2023-01-03T04:37:32.602Z,101583.22
2023-01-03T04:39:59.641Z,101576.66
2023-01-03T04:42:44.968Z,101575.56
2023-01-03T04:45:11.810Z,101576.41
2023-01-03T04:47:38.306Z,101577.06
2023-01-03T04:50:05.234Z,101584.31
2023-01-03T04:52:32.120Z,101584.81
2023-01-03T04:54:59.610Z,101573.56
2023-01-03T04:57:26.445Z,101574.88
2023-01-03T04:59:52.963Z,101578.16
2023-01-03T05:02:19.575Z,101577.16
2023-01-03T05:04:46.684Z,101585.44
2023-01-03T05:07:14.025Z,101580.75
2023-01-03T05:09:40.578Z,101587.66
2023-01-03T05:12:07.409Z,101584.38
2023-01-03T05:14:33.930Z,101585.56
2023-01-03T05:17:00.534Z,101590.41
2023-01-03T05:19:27.066Z,101582.16
2023-01-03T05:22:12.522Z,101585.31
2023-01-03T05:24:58.202Z,101592.75
2023-01-03T05:27:24.925Z,101585.22
2023-01-03T05:29:53.139Z,101586.28
2023-01-03T05:32:20.735Z,101590.28
2023-01-03T05:34:47.790Z,101599.34
2023-01-03T05:37:14.718Z,101610.94
2023-01-03T05:39:41.218Z,101602.31
2023-01-03T05:42:09.076Z,101601.75
2023-01-03T05:44:36.628Z,101606.47
2023-01-03T05:47:04.687Z,101606.78
2023-01-03T05:49:31.272Z,101606.34
2023-01-03T05:51:57.797Z,101608.59
2023-01-03T05:54:24.718Z,101596.00
2023-01-03T05:56:51.809Z,101607.88
2023-01-03T05:59:19.085Z,101601.09
2023-01-03T06:01:46.001Z,101608.22
2023-01-03T06:04:12.763Z,101607.06
2023-01-03T06:06:39.849Z,101611.28
2023-01-03T06:09:06.399Z,101613.00
2023-01-03T06:11:33.115Z,101613.44
2023-01-03T06:14:00.645Z,101626.47
2023-01-03T06:16:46.151Z,101621.72
2023-01-03T06:19:13.668Z,101632.94
2023-01-03T06:21:41.494Z,101642.00
2023-01-03T06:24:08.973Z,101644.25
2023-01-03T06:26:37.000Z,101635.59
2023-01-03T06:29:04.450Z,101641.91
2023-01-03T06:31:31.061Z,101647.53
2023-01-03T06:33:57.682Z,101645.16
2023-01-03T06:36:26.066Z,101641.66
2023-01-03T06:38:53.811Z,101654.88
2023-01-03T06:41:20.630Z,101647.84
2023-01-03T06:43:47.244Z,101653.44
2023-01-03T06:46:32.878Z,101654.38
2023-01-03T06:49:18.881Z,101660.75
2023-01-03T06:52:14.047Z,101678.31
2023-01-03T06:54:41.150Z,101682.00
2023-01-03T06:57:08.385Z,101675.66
2023-01-03T06:59:35.217Z,101673.78
2023-01-03T07:02:01.937Z,101672.56
2023-01-03T07:04:28.603Z,101677.13
2023-01-03T07:06:55.393Z,101677.41
2023-01-03T07:09:22.210Z,101682.84
2023-01-03T07:11:54.029Z,101681.47
2023-01-03T07:14:20.767Z,101693.25
2023-01-03T07:16:48.492Z,101693.91
2023-01-03T07:19:19.014Z,101688.31
2023-01-03T07:21:46.256Z,101697.91
2023-01-03T07:24:15.505Z,101690.38
2023-01-03T07:26:42.030Z,101702.56
2023-01-03T07:29:10.699Z,101707.16
2023-01-03T07:31:41.117Z,101703.03
2023-01-03T07:34:08.832Z,101700.34
2023-01-03T07:36:37.065Z,101701.63
2023-01-03T07:39:03.720Z,101708.00
2023-01-03T07:41:48.679Z,101709.50
2023-01-03T07:44:15.234Z,101719.09
2023-01-03T07:46:41.832Z,101714.25
2023-01-03T07:49:11.921Z,101725.09
2023-01-03T07:51:39.417Z,101719.28
2023-01-03T07:54:07.279Z,101725.44
2023-01-03T07:56:34.280Z,101723.06
2023-01-03T07:59:00.855Z,101730.25
2023-01-03T08:01:27.690Z,101733.75
2023-01-03T08:03:54.315Z,101736.31
2023-01-03T08:06:23.739Z,101729.50
2023-01-03T08:09:10.293Z,101730.50
2023-01-03T08:11:55.967Z,101738.47
2023-01-03T08:14:26.037Z,101740.09
2023-01-03T08:16:53.570Z,101735.19
2023-01-03T08:19:20.832Z,101745.13
2023-01-03T08:21:47.391Z,101742.38
2023-01-03T08:24:13.959Z,101743.91
2023-01-03T08:26:40.575Z,101758.91
2023-01-03T08:29:07.466Z,101762.28
2023-01-03T08:31:37.951Z,101765.66
2023-01-03T08:34:12.038Z,101761.69
2023-01-03T08:36:48.977Z,101764.22
2023-01-03T08:39:21.431Z,101776.78
2023-01-03T08:41:54.461Z,101780.91
2023-01-03T08:44:21.455Z,101789.63
2023-01-03T08:46:51.455Z,101795.34
2023-01-03T08:49:19.075Z,101783.72
2023-01-03T08:51:46.069Z,101793.66
2023-01-03T08:54:13.809Z,101794.91
2023-01-03T08:56:40.599Z,101798.13
2023-01-03T08:59:07.143Z,101804.09
2023-01-03T09:01:34.259Z,101798.75
2023-01-03T09:04:01.076Z,101798.50
2023-01-03T09:06:27.663Z,101800.69
2023-01-03T09:08:54.220Z,101811.19
2023-01-03T09:11:20.729Z,101815.88
2023-01-03T09:13:47.327Z,101815.41
2023-01-03T09:16:15.950Z,101815.44
2023-01-03T09:18:42.759Z,101822.75
2023-01-03T09:21:09.325Z,101821.34
2023-01-03T09:23:36.865Z,101822.56
2023-01-03T09:26:04.207Z,101824.75
2023-01-03T09:28:30.807Z,101830.84
2023-01-03T09:30:57.428Z,101824.91
2023-01-03T09:33:24.049Z,101821.88
2023-01-03T09:35:54.908Z,101825.56
2023-01-03T09:38:22.888Z,101829.47
2023-01-03T09:41:06.136Z,101829.63
2023-01-03T09:43:41.011Z,101821.88
2023-01-03T09:46:17.116Z,101822.00
2023-01-03T09:48:44.357Z,101824.19
2023-01-03T09:51:48.149Z,101819.84
2023-01-03T09:54:41.533Z,101820.72
2023-01-03T09:57:36.517Z,101816.47
2023-01-03T10:00:29.344Z,101806.81
2023-01-03T10:03:51.594Z,101814.28
2023-01-03T10:06:43.595Z,101811.94
2023-01-03T10:09:46.083Z,101809.13
2023-01-03T10:12:45.606Z,101805.75
2023-01-03T10:15:30.405Z,101815.44
2023-01-03T10:18:41.376Z,101807.22
2023-01-03T10:21:12.318Z,101810.31
2023-01-03T10:23:39.329Z,101798.53
2023-01-03T10:26:11.516Z,101799.44
2023-01-03T10:28:42.732Z,101790.25
2023-01-03T10:31:19.263Z,101789.59
2023-01-03T10:33:47.765Z,101786.34
2023-01-03T10:36:20.534Z,101792.22
2023-01-03T10:38:52.875Z,101785.69
2023-01-03T10:41:45.966Z,101791.03
2023-01-03T10:44:25.536Z,101788.59
2023-01-03T10:46:54.768Z,101794.31
2023-01-03T10:49:29.487Z,101788.84
2023-01-03T10:52:02.620Z,101794.94
2023-01-03T10:54:41.311Z,101789.25
2023-01-03T10:57:08.045Z,101791.63
2023-01-03T10:59:35.498Z,101774.09
2023-01-03T11:02:16.484Z,101769.66
2023-01-03T11:04:44.263Z,101777.28
2023-01-03T11:07:13.580Z,101771.09
2023-01-03T11:09:56.990Z,101775.25
2023-01-03T11:12:26.448Z,101777.22
2023-01-03T11:14:56.269Z,101767.63
2023-01-03T11:17:25.411Z,101771.63
2023-01-03T11:19:53.359Z,101773.03
2023-01-03T11:22:38.783Z,101760.31
2023-01-03T11:25:17.464Z,101758.19
2023-01-03T11:28:02.309Z,101749.91
2023-01-03T11:30:53.786Z,101754.16
2023-01-03T11:34:14.918Z,101754.06
2023-01-03T11:37:09.516Z,101745.56
2023-01-03T11:39:53.696Z,101744.41
2023-01-03T11:42:36.080Z,101741.47
2023-01-03T11:45:24.504Z,101735.66
2023-01-03T11:48:00.069Z,101730.34
2023-01-03T11:51:04.381Z,101730.53
2023-01-03T11:53:38.100Z,101727.88
2023-01-03T11:56:33.201Z,101717.81
2023-01-03T11:59:18.244Z,101720.75
2023-01-03T12:02:11.313Z,101726.19
2023-01-03T12:05:07.073Z,101721.44
2023-01-03T12:07:56.116Z,101726.59
2023-01-03T12:10:28.766Z,101722.69
2023-01-03T12:13:10.799Z,101720.59
2023-01-03T12:15:46.280Z,101714.94
2023-01-03T12:18:37.762Z,101711.94
2023-01-03T12:21:11.529Z,101709.53
2023-01-03T12:23:46.356Z,101707.84
2023-01-03T12:26:15.485Z,101706.38
2023-01-03T12:28:51.234Z,101688.97
2023-01-03T12:31:31.027Z,101703.72
2023-01-03T12:34:07.307Z,101691.16
2023-01-03T12:36:58.911Z,101689.09
2023-01-03T12:39:32.496Z,101678.63
2023-01-03T12:42:08.213Z,101678.38
2023-01-03T12:44:44.665Z,101675.59
2023-01-03T12:47:27.899Z,101676.22
2023-01-03T12:50:11.224Z,101672.09
2023-01-03T12:52:39.407Z,101681.69
2023-01-03T12:55:19.636Z,101666.81
2023-01-03T12:57:51.857Z,101669.50
2023-01-03T13:00:58.808Z,101670.69
2023-01-03T13:03:38.884Z,101666.00
2023-01-03T13:06:21.966Z,101659.06
2023-01-03T13:08:53.435Z,101657.94
2023-01-03T13:11:28.487Z,101672.38
2023-01-03T13:13:59.275Z,101668.78
2023-01-03T13:16:30.348Z,101665.84
2023-01-03T13:19:20.031Z,101663.47
2023-01-03T13:21:53.072Z,101664.19
2023-01-03T13:24:49.219Z,101659.59
2023-01-03T13:27:22.599Z,101651.13
2023-01-03T13:29:49.298Z,101653.59
2023-01-03T13:32:21.817Z,101657.97
2023-01-03T13:35:30.113Z,101660.06
2023-01-03T13:37:59.723Z,101655.47
2023-01-03T13:41:15.498Z,101654.00
2023-01-03T13:43:22.369Z,101648.97
2023-01-03T13:45:52.554Z,101639.63
2023-01-03T13:48:30.382Z,101639.53
2023-01-03T13:51:24.087Z,101642.31
2023-01-03T13:54:24.174Z,101639.00
2023-01-03T13:56:52.569Z,101633.38
2023-01-03T13:59:42.653Z,101640.66
2023-01-03T14:02:09.411Z,101642.16
2023-01-03T14:05:14.687Z,101643.22
2023-01-03T14:07:47.891Z,101638.81
2023-01-03T14:10:23.977Z,101640.13
2023-01-03T14:13:18.822Z,101643.84
2023-01-03T14:15:47.348Z,101646.16
2023-01-03T14:18:29.898Z,101642.75
2023-01-03T14:20:58.051Z,101647.97
2023-01-03T14:26:19.312Z,101645.06
2023-01-03T14:28:49.487Z,101652.84
2023-01-03T14:31:23.483Z,101651.41
2023-01-03T14:33:59.481Z,101654.66
2023-01-03T14:36:26.689Z,101651.88
2023-01-03T14:39:00.963Z,101655.19
2023-01-03T14:41:38.884Z,101657.34
2023-01-03T14:44:11.493Z,101656.72
2023-01-03T14:46:40.435Z,101662.53
2023-01-03T14:49:22.750Z,101654.06
2023-01-03T14:51:49.715Z,101650.78
2023-01-03T14:54:19.484Z,101647.31
2023-01-03T14:56:48.386Z,101648.19
2023-01-03T14:59:19.581Z,101650.63
2023-01-03T15:01:47.696Z,101653.78
2023-01-03T15:04:16.792Z,101653.72
2023-01-03T15:07:11.336Z,101649.19
2023-01-03T15:09:40.096Z,101658.06
2023-01-03T15:12:06.849Z,101660.38
2023-01-03T15:14:36.099Z,101661.13
2023-01-03T15:17:15.321Z,101659.59
2023-01-03T15:19:49.895Z,101662.25
2023-01-03T15:22:26.390Z,101666.88
2023-01-03T15:25:03.632Z,101666.25
2023-01-03T15:27:39.715Z,101665.38
2023-01-03T15:30:20.691Z,101666.47
2023-01-03T15:33:20.996Z,101661.53
2023-01-03T15:35:51.271Z,101662.66
2023-01-03T15:38:33.719Z,101655.88
2023-01-03T15:41:03.147Z,101659.38
2023-01-03T15:43:37.643Z,101660.88
2023-01-03T15:46:20.134Z,101657.81
2023-01-03T15:48:55.302Z,101662.47
2023-01-03T15:51:21.840Z,101661.91
2023-01-03T15:53:48.523Z,101661.91
2023-01-03T15:56:24.452Z,101661.78
2023-01-03T15:58:54.660Z,101654.94
2023-01-03T16:01:23.666Z,101655.69
2023-01-03T16:03:52.262Z,101653.97
2023-01-03T16:06:19.232Z,101656.97
2023-01-03T16:08:46.425Z,101652.22
2023-01-03T16:11:34.901Z,101649.16
2023-01-03T16:14:04.756Z,101652.97
2023-01-03T16:16:35.316Z,101655.81
2023-01-03T16:19:04.758Z,101641.75
2023-01-03T16:21:31.753Z,101649.28
2023-01-03T16:23:59.011Z,101648.41
2023-01-03T16:26:25.936Z,101646.88
2023-01-03T16:28:52.955Z,101641.41
2023-01-03T16:31:28.352Z,101642.88
2023-01-03T16:33:55.870Z,101641.84
2023-01-03T16:36:36.398Z,101633.59
2023-01-03T16:39:11.185Z,101629.00
2023-01-03T16:41:37.760Z,101629.47
2023-01-03T16:44:04.777Z,101628.84
2023-01-03T16:46:31.875Z,101623.72
2023-01-03T16:48:59.793Z,101618.94
2023-01-03T16:51:30.316Z,101614.84
2023-01-03T16:53:58.190Z,101620.09
2023-01-03T16:56:25.438Z,101616.78
2023-01-03T16:58:52.908Z,101623.13
2023-01-03T17:01:20.153Z,101608.31
2023-01-03T17:03:46.958Z,101613.31
2023-01-03T17:06:25.534Z,101606.72
2023-01-03T17:08:52.230Z,101609.25
2023-01-03T17:11:19.023Z,101607.56
2023-01-03T17:13:47.405Z,101608.50
2023-01-03T17:16:17.874Z,101602.38
2023-01-03T17:18:45.464Z,101611.13
2023-01-03T17:21:16.756Z,101612.22
2023-01-03T17:23:44.856Z,101590.22
2023-01-03T17:26:15.228Z,101586.41
2023-01-03T17:28:43.588Z,101592.72
2023-01-03T17:31:18.457Z,101595.69
2023-01-03T17:33:45.207Z,101603.53
2023-01-03T17:36:14.753Z,101603.03
2023-01-03T17:38:43.138Z,101598.19
2023-01-03T17:41:17.683Z,101591.81
2023-01-03T17:43:45.496Z,101591.38
2023-01-03T17:46:42.817Z,101595.41
2023-01-03T17:49:26.195Z,101591.34
2023-01-03T17:51:58.821Z,101599.75
2023-01-03T17:54:30.048Z,101595.38
2023-01-03T17:56:59.901Z,101599.03
2023-01-03T17:59:28.385Z,101599.53
2023-01-03T18:01:55.884Z,101595.41
2023-01-03T18:04:30.218Z,101593.50
2023-01-03T18:07:05.430Z,101599.00
2023-01-03T18:09:32.968Z,101596.00
2023-01-03T18:11:59.507Z,101593.63
2023-01-03T18:14:26.276Z,101593.41
2023-01-03T18:16:55.244Z,101589.19
2023-01-03T18:19:22.172Z,101581.28
2023-01-03T18:21:49.045Z,101570.56
2023-01-03T18:24:21.727Z,101576.94
2023-01-03T18:26:52.134Z,101568.09
2023-01-03T18:29:18.753Z,101567.69
2023-01-03T18:31:46.732Z,101561.09
2023-01-03T18:34:14.484Z,101566.19
2023-01-03T18:36:51.784Z,101570.50
2023-01-03T18:39:29.473Z,101566.00
2023-01-03T18:42:17.507Z,101563.41
2023-01-03T18:44:44.044Z,101557.16
2023-01-03T18:47:14.407Z,101556.78
2023-01-03T18:49:41.207Z,101559.56
2023-01-03T18:52:35.117Z,101554.66
2023-01-03T18:55:02.818Z,101549.97
2023-01-03T18:57:29.791Z,101558.00
2023-01-03T18:59:56.371Z,101561.09
2023-01-03T19:02:23.021Z,101548.03
2023-01-03T19:04:51.839Z,101549.38
2023-01-03T19:07:26.977Z,101550.44
2023-01-03T19:09:53.995Z,101548.94
2023-01-03T19:12:20.531Z,101539.16
2023-01-03T19:14:47.090Z,101543.41
2023-01-03T19:17:16.818Z,101535.41
2023-01-03T19:19:44.454Z,101533.94
2023-01-03T19:22:27.817Z,101527.38
2023-01-03T19:24:57.677Z,101533.69
2023-01-03T19:27:33.791Z,101519.97
2023-01-03T19:30:00.499Z,101522.34
2023-01-03T19:32:29.399Z,101517.00
2023-01-03T19:34:55.951Z,101517.22
2023-01-03T19:37:23.874Z,101509.09
2023-01-03T19:39:50.995Z,101508.00
2023-01-03T19:42:39.370Z,101508.06
2023-01-03T19:45:25.126Z,101502.91
2023-01-03T19:47:51.664Z,101493.53
2023-01-03T19:50:24.398Z,101500.69
2023-01-03T19:52:51.765Z,101498.19
2023-01-03T19:55:18.375Z,101493.47
2023-01-03T19:57:48.734Z,101488.97
2023-01-03T20:00:18.755Z,101486.06
2023-01-03T20:02:46.471Z,101475.50
2023-01-03T20:05:25.670Z,101468.28
2023-01-03T20:07:53.261Z,101468.09
2023-01-03T20:10:25.480Z,101469.03
2023-01-03T20:12:57.606Z,101474.63
2023-01-03T20:15:27.688Z,101477.25
2023-01-03T20:17:54.946Z,101471.72
2023-01-03T20:20:23.303Z,101466.59
2023-01-03T20:23:10.113Z,101454.31
2023-01-03T20:25:37.236Z,101455.78
2023-01-03T20:28:04.780Z,101451.38
2023-01-03T20:30:32.718Z,101450.38
2023-01-03T20:32:59.936Z,101449.81
2023-01-03T20:38:16.812Z,101446.72
2023-01-03T20:40:43.413Z,101437.28
2023-01-03T20:43:13.784Z,101433.53
2023-01-03T20:45:40.681Z,101430.25
2023-01-03T20:48:19.266Z,101434.22
2023-01-03T20:50:47.681Z,101427.78
2023-01-03T20:53:20.271Z,101421.47
2023-01-03T20:55:48.559Z,101424.19
2023-01-03T20:58:17.408Z,101414.00
2023-01-03T21:00:44.448Z,101405.63
2023-01-03T21:03:11.568Z,101403.69
2023-01-03T21:05:38.765Z,101408.41
2023-01-03T21:08:26.955Z,101401.84
2023-01-03T21:10:53.786Z,101397.78
2023-01-03T21:13:21.153Z,101389.41
2023-01-03T21:15:48.922Z,101394.19
2023-01-03T21:18:16.230Z,101391.44
2023-01-03T21:20:43.575Z,101390.69
2023-01-03T21:23:22.103Z,101391.84
2023-01-03T21:25:49.976Z,101379.09
2023-01-03T21:28:16.583Z,101384.41
2023-01-03T21:30:43.234Z,101365.03
2023-01-03T21:33:17.014Z,101356.09
2023-01-03T21:35:44.816Z,101365.47
2023-01-03T21:38:12.371Z,101356.31
2023-01-03T21:40:38.954Z,101357.38
2023-01-03T21:43:06.131Z,101352.69
2023-01-03T21:45:34.370Z,101349.19
2023-01-03T21:48:02.872Z,101343.75
2023-01-03T21:50:30.763Z,101339.38
2023-01-03T21:52:58.004Z,101337.78
2023-01-03T21:55:25.241Z,101345.22
2023-01-03T21:57:53.343Z,101334.50
2023-01-03T22:00:20.043Z,101334.72
2023-01-03T22:03:06.221Z,101334.75
2023-01-03T22:05:33.046Z,101342.25
2023-01-03T22:08:01.716Z,101323.00
2023-01-03T22:10:30.256Z,101332.81
2023-01-03T22:13:02.536Z,101333.09
2023-01-03T22:15:29.085Z,101331.94
2023-01-03T22:17:55.673Z,101322.44
2023-01-03T22:20:24.996Z,101334.50
2023-01-03T22:22:52.742Z,101333.56
2023-01-03T22:25:22.102Z,101328.91
2023-01-03T22:27:49.988Z,101330.75
2023-01-03T22:30:19.368Z,101330.28
2023-01-03T22:32:46.917Z,101329.72
2023-01-03T22:35:15.530Z,101328.31
2023-01-03T22:37:42.531Z,101320.19
2023-01-03T22:40:13.393Z,101313.28
2023-01-03T22:42:39.924Z,101312.41
2023-01-03T22:45:07.585Z,101316.91
2023-01-03T22:47:36.883Z,101318.69
2023-01-03T22:50:05.498Z,101312.72
2023-01-03T22:52:32.048Z,101306.56
2023-01-03T22:54:59.117Z,101292.56
2023-01-03T22:57:25.627Z,101303.53
2023-01-03T22:59:52.481Z,101296.66
2023-01-03T23:02:23.149Z,101294.28
2023-01-03T23:04:52.818Z,101283.97
2023-01-03T23:07:19.439Z,101272.41
2023-01-03T23:09:46.261Z,101267.56
2023-01-03T23:12:31.789Z,101264.41
2023-01-03T23:14:58.587Z,101258.31
2023-01-03T23:17:43.821Z,101252.22
2023-01-03T23:20:10.480Z,101241.91
2023-01-03T23:22:37.484Z,101229.41
2023-01-03T23:25:04.459Z,101236.44
2023-01-03T23:27:31.011Z,101232.59
2023-01-03T23:29:57.544Z,101240.03
2023-01-03T23:32:24.536Z,101229.09
2023-01-03T23:34:51.068Z,101220.19
2023-01-03T23:37:17.605Z,101213.47
2023-01-03T23:39:44.173Z,101204.44
2023-01-03T23:42:10.984Z,101205.63
2023-01-03T23:44:37.554Z,101197.78
2023-01-03T23:47:11.040Z,101190.09
2023-01-03T23:49:38.745Z,101190.66
2023-01-03T23:52:05.278Z,101190.94
2023-01-03T23:54:31.811Z,101179.13
2023-01-03T23:56:58.385Z,101166.63
2023-01-03T23:59:25.203Z,101167.59
